createdAt,value
2023-02-26T00:00:43.697Z,69.27
2023-02-26T00:03:35.377Z,67.05
2023-02-26T00:06:09.737Z,67.03
2023-02-26T00:08:41.709Z,60.07
2023-02-26T00:11:16.281Z,62.80
2023-02-26T00:13:49.509Z,63.90
2023-02-26T00:16:27.575Z,60.43
2023-02-26T00:18:59.625Z,62.40
2023-02-26T00:24:02.359Z,59.50
2023-02-26T00:26:35.461Z,60.43
2023-02-26T00:29:08.361Z,59.70
2023-02-26T00:31:40.481Z,63.33
2023-02-26T00:34:14.685Z,58.55
2023-02-26T00:36:51.624Z,59.50
2023-02-26T00:39:31.266Z,56.03
2023-02-26T00:42:04.233Z,56.55
2023-02-26T00:44:37.621Z,55.12
2023-02-26T00:47:11.353Z,59.87
2023-02-26T00:49:49.124Z,58.43
2023-02-26T00:52:28.046Z,53.87
2023-02-26T00:55:00.620Z,54.23
2023-02-26T00:57:32.788Z,60.48
2023-02-26T01:00:06.192Z,61.60
2023-02-26T01:02:40.053Z,55.90
2023-02-26T01:05:13.573Z,53.45
2023-02-26T01:07:46.778Z,52.15
2023-02-26T01:10:19.458Z,50.73
2023-02-26T01:12:52.387Z,55.75
2023-02-26T01:15:26.142Z,50.93
2023-02-26T01:18:01.709Z,55.77
2023-02-26T01:20:38.158Z,55.52
2023-02-26T01:23:11.170Z,54.15
2023-02-26T01:25:45.051Z,50.63
2023-02-26T01:28:18.437Z,52.88
2023-02-26T01:30:52.311Z,55.00
2023-02-26T01:33:27.054Z,53.70
2023-02-26T01:36:02.833Z,53.45
2023-02-26T01:38:41.233Z,50.73
2023-02-26T01:41:19.889Z,53.95
2023-02-26T01:43:55.067Z,55.10
2023-02-26T01:46:32.353Z,49.27
2023-02-26T01:49:05.262Z,49.23
2023-02-26T01:51:44.713Z,54.67
2023-02-26T01:54:17.383Z,49.93
2023-02-26T01:56:50.363Z,51.90
2023-02-26T01:59:25.190Z,52.77
2023-02-26T02:01:58.096Z,52.77
2023-02-26T02:04:30.135Z,52.30
2023-02-26T02:07:02.308Z,47.67
2023-02-26T02:09:35.083Z,51.83
2023-02-26T02:12:15.233Z,50.90
2023-02-26T02:14:54.153Z,54.17
2023-02-26T02:17:32.005Z,53.17
2023-02-26T02:20:22.650Z,54.10
2023-02-26T02:22:59.943Z,53.83
2023-02-26T02:25:45.210Z,55.20
2023-02-26T02:28:22.714Z,51.17
2023-02-26T02:31:03.732Z,56.10
2023-02-26T02:33:37.626Z,54.60
2023-02-26T02:36:14.555Z,50.10
2023-02-26T02:38:48.808Z,51.67
2023-02-26T02:41:22.065Z,50.60
2023-02-26T02:43:54.738Z,52.40
2023-02-26T02:46:29.716Z,54.10
2023-02-26T02:49:04.039Z,51.30
2023-02-26T02:51:38.713Z,54.17
2023-02-26T02:54:12.011Z,55.07
2023-02-26T02:56:45.921Z,54.63
2023-02-26T02:59:19.504Z,58.08
2023-02-26T03:01:52.736Z,59.40
2023-02-26T03:04:24.970Z,51.35
2023-02-26T03:06:57.340Z,53.63
2023-02-26T03:09:29.710Z,52.53
2023-02-26T03:12:01.881Z,54.10
2023-02-26T03:14:34.874Z,53.67
2023-02-26T03:17:20.135Z,54.13
2023-02-26T03:19:58.660Z,51.60
2023-02-26T03:22:36.833Z,56.68
2023-02-26T03:25:13.574Z,57.00
2023-02-26T03:27:49.202Z,55.20
2023-02-26T03:30:24.724Z,51.15
2023-02-26T03:33:00.663Z,50.67
2023-02-26T03:35:35.199Z,52.83
2023-02-26T03:38:09.640Z,52.33
2023-02-26T03:40:43.222Z,49.93
2023-02-26T03:43:18.929Z,52.03
2023-02-26T03:45:52.306Z,50.60
2023-02-26T03:48:27.982Z,54.50
2023-02-26T03:51:03.548Z,55.83
2023-02-26T03:54:02.048Z,54.57
2023-02-26T03:56:36.505Z,48.63
2023-02-26T03:59:27.627Z,52.62
2023-02-26T04:02:28.180Z,52.57
2023-02-26T04:05:04.569Z,52.10
2023-02-26T04:07:37.040Z,52.63
2023-02-26T04:10:11.200Z,52.98
2023-02-26T04:12:44.296Z,49.17
2023-02-26T04:15:16.404Z,49.30
2023-02-26T04:17:47.954Z,54.08
2023-02-26T04:20:20.609Z,48.37
2023-02-26T04:22:52.520Z,53.77
2023-02-26T04:25:27.731Z,52.00
2023-02-26T04:28:00.127Z,56.77
2023-02-26T04:33:02.177Z,54.15
2023-02-26T04:35:35.364Z,56.70
2023-02-26T04:40:37.648Z,52.00
2023-02-26T04:45:43.211Z,50.17
2023-02-26T04:48:15.787Z,55.03
2023-02-26T04:50:47.946Z,53.10
2023-02-26T04:53:20.543Z,56.70
2023-02-26T04:55:53.713Z,55.17
2023-02-26T04:58:26.081Z,52.83
2023-02-26T05:00:58.887Z,54.35
2023-02-26T05:03:31.655Z,58.40
2023-02-26T05:06:03.832Z,53.23
2023-02-26T05:08:38.230Z,54.70
2023-02-26T05:11:10.194Z,54.30
2023-02-26T05:16:12.798Z,53.93
2023-02-26T05:18:44.851Z,52.50
2023-02-26T05:21:16.609Z,57.33
2023-02-26T05:23:48.782Z,57.93
2023-02-26T05:26:21.959Z,56.67
2023-02-26T05:28:54.538Z,56.92
2023-02-26T05:33:56.614Z,53.25
2023-02-26T05:36:28.178Z,57.53
2023-02-26T05:38:59.718Z,57.40
2023-02-26T05:41:31.542Z,58.23
2023-02-26T05:44:04.252Z,57.13
2023-02-26T05:46:36.251Z,55.88
2023-02-26T05:49:08.394Z,57.17
2023-02-26T05:51:43.006Z,61.30
2023-02-26T05:54:14.759Z,55.83
2023-02-26T05:56:47.126Z,57.33
2023-02-26T05:59:19.092Z,55.43
2023-02-26T06:01:50.800Z,51.05
2023-02-26T06:04:22.603Z,54.45
2023-02-26T06:06:55.389Z,55.23
2023-02-26T06:09:27.547Z,50.80
2023-02-26T06:11:59.924Z,57.25
2023-02-26T06:14:32.287Z,55.53
2023-02-26T06:17:03.729Z,52.95
2023-02-26T06:19:36.005Z,55.07
2023-02-26T06:24:37.672Z,63.25
2023-02-26T06:27:10.496Z,65.92
2023-02-26T06:29:42.221Z,58.95
2023-02-26T06:32:13.548Z,57.70
2023-02-26T06:34:45.318Z,54.93
2023-02-26T06:37:17.178Z,56.45
2023-02-26T06:39:49.242Z,57.53
2023-02-26T06:42:21.818Z,55.65
2023-02-26T06:44:54.397Z,55.27
2023-02-26T06:47:25.942Z,58.87
2023-02-26T06:49:57.909Z,54.13
2023-02-26T06:52:30.487Z,53.63
2023-02-26T06:55:02.648Z,57.70
2023-02-26T07:00:05.373Z,51.10
2023-02-26T07:02:38.155Z,55.93
2023-02-26T07:05:10.986Z,54.00
2023-02-26T07:07:44.089Z,55.27
2023-02-26T07:10:16.256Z,51.27
2023-02-26T07:15:18.566Z,49.13
2023-02-26T07:17:50.295Z,53.83
2023-02-26T07:20:22.890Z,52.38
2023-02-26T07:22:54.630Z,53.17
2023-02-26T07:25:27.208Z,58.50
2023-02-26T07:28:00.392Z,57.50
2023-02-26T07:30:32.884Z,61.73
2023-02-26T07:33:04.517Z,57.93
2023-02-26T07:35:36.686Z,55.08
2023-02-26T07:38:08.850Z,52.17
2023-02-26T07:40:40.605Z,57.33
2023-02-26T07:43:12.974Z,53.68
2023-02-26T07:45:45.213Z,55.60
2023-02-26T07:48:17.730Z,55.03
2023-02-26T07:50:52.785Z,59.07
2023-02-26T07:53:24.916Z,55.47
2023-02-26T07:55:57.082Z,58.02
2023-02-26T07:58:29.452Z,55.57
2023-02-26T08:01:01.260Z,54.35
2023-02-26T08:03:33.987Z,51.98
2023-02-26T08:06:06.156Z,52.35
2023-02-26T08:11:08.233Z,51.55
2023-02-26T08:16:10.629Z,48.98
2023-02-26T08:18:42.680Z,49.23
2023-02-26T08:21:14.441Z,55.20
2023-02-26T08:23:46.809Z,52.38
2023-02-26T08:26:19.191Z,49.60
2023-02-26T08:28:52.370Z,47.70
2023-02-26T08:31:23.834Z,56.18
2023-02-26T08:33:56.291Z,54.27
2023-02-26T08:36:28.657Z,54.03
2023-02-26T08:39:00.825Z,53.30
2023-02-26T08:41:33.013Z,48.98
2023-02-26T08:44:05.368Z,48.48
2023-02-26T08:46:37.238Z,51.40
2023-02-26T08:49:09.285Z,48.42
2023-02-26T08:51:41.044Z,52.48
2023-02-26T08:54:14.449Z,48.27
2023-02-26T08:56:46.612Z,49.73
2023-02-26T08:59:18.364Z,49.20
2023-02-26T09:01:50.555Z,54.58
2023-02-26T09:04:23.106Z,47.93
2023-02-26T09:06:55.680Z,53.48
2023-02-26T09:09:27.640Z,51.42
2023-02-26T09:14:31.557Z,42.98
2023-02-26T09:17:03.117Z,45.55
2023-02-26T09:19:34.877Z,54.33
2023-02-26T09:22:07.051Z,50.00
2023-02-26T09:27:08.501Z,48.95
2023-02-26T09:29:40.058Z,51.10
2023-02-26T09:32:11.135Z,44.60
2023-02-26T09:34:43.376Z,49.60
2023-02-26T09:39:45.646Z,43.13
2023-02-26T09:42:27.897Z,44.18
2023-02-26T09:45:00.440Z,45.12
2023-02-26T09:47:39.764Z,43.40
2023-02-26T09:50:16.224Z,40.15
2023-02-26T09:52:52.691Z,44.50
2023-02-26T09:55:27.536Z,38.35
2023-02-26T09:58:01.015Z,34.73
2023-02-26T10:00:35.904Z,42.13
2023-02-26T10:03:17.305Z,34.92
2023-02-26T10:05:53.726Z,33.23
2023-02-26T10:08:28.456Z,24.20
2023-02-26T10:11:03.784Z,23.62
2023-02-26T10:13:56.047Z,20.45
2023-02-26T10:16:31.017Z,29.02
2023-02-26T10:19:04.748Z,24.45
2023-02-26T10:21:38.756Z,20.10
2023-02-26T10:24:15.623Z,21.15
2023-02-26T10:26:51.663Z,23.47
2023-02-26T10:29:25.571Z,20.10
2023-02-26T10:32:05.142Z,18.27
2023-02-26T10:34:40.452Z,23.77
2023-02-26T10:37:15.700Z,24.23
2023-02-26T10:39:50.938Z,19.12
2023-02-26T10:42:25.466Z,23.50
2023-02-26T10:45:03.957Z,20.08
2023-02-26T10:47:37.941Z,22.55
2023-02-26T10:50:13.405Z,25.57
2023-02-26T10:52:46.323Z,18.92
2023-02-26T10:55:35.473Z,21.02
2023-02-26T10:58:11.351Z,20.82
2023-02-26T11:00:44.573Z,20.02
2023-02-26T11:03:18.324Z,22.52
2023-02-26T11:05:50.901Z,19.80
2023-02-26T11:08:27.572Z,19.70
2023-02-26T11:11:00.391Z,19.45
2023-02-26T11:13:34.372Z,17.75
2023-02-26T11:16:07.611Z,16.10
2023-02-26T11:18:41.218Z,16.15
2023-02-26T11:21:18.652Z,18.25
2023-02-26T11:23:51.633Z,18.40
2023-02-26T11:26:28.030Z,26.65
2023-02-26T11:29:00.885Z,17.37
2023-02-26T11:31:34.005Z,20.62
2023-02-26T11:34:07.469Z,23.45
2023-02-26T11:36:40.695Z,14.38
2023-02-26T11:39:17.742Z,24.77
2023-02-26T11:41:50.927Z,24.70
2023-02-26T11:44:29.032Z,17.92
2023-02-26T11:47:03.519Z,21.15
2023-02-26T11:49:35.619Z,20.37
2023-02-26T11:52:21.035Z,16.35
2023-02-26T11:54:56.883Z,19.23
2023-02-26T11:57:30.778Z,22.60
2023-02-26T12:00:06.674Z,16.82
2023-02-26T12:02:44.934Z,17.65
2023-02-26T12:07:48.944Z,20.75
2023-02-26T12:10:24.135Z,17.35
2023-02-26T12:13:04.934Z,20.12
2023-02-26T12:15:41.008Z,16.62
2023-02-26T12:18:18.299Z,17.12
2023-02-26T12:20:56.090Z,20.32
2023-02-26T12:23:36.396Z,18.73
2023-02-26T12:26:14.709Z,15.55
2023-02-26T12:28:49.744Z,20.00
2023-02-26T12:31:36.754Z,21.95
2023-02-26T12:34:16.347Z,21.57
2023-02-26T12:36:54.823Z,18.50
2023-02-26T12:39:40.238Z,19.85
2023-02-26T12:42:19.703Z,21.02
2023-02-26T12:44:57.516Z,15.85
2023-02-26T12:47:34.581Z,23.62
2023-02-26T12:50:13.664Z,23.98
2023-02-26T12:52:59.907Z,15.70
2023-02-26T12:55:37.261Z,20.62
2023-02-26T12:58:23.157Z,20.90
2023-02-26T13:01:05.614Z,20.52
2023-02-26T13:03:54.432Z,17.73
2023-02-26T13:06:37.136Z,17.27
2023-02-26T13:09:15.896Z,19.80
2023-02-26T13:11:56.409Z,20.92
2023-02-26T13:14:32.566Z,15.75
2023-02-26T13:17:08.407Z,16.55
2023-02-26T13:19:43.831Z,24.55
2023-02-26T13:22:20.345Z,23.45
2023-02-26T13:24:55.745Z,18.95
2023-02-26T13:27:30.010Z,21.52
2023-02-26T13:30:08.074Z,22.87
2023-02-26T13:32:40.802Z,26.75
2023-02-26T13:35:19.898Z,24.35
2023-02-26T13:37:53.381Z,16.15
2023-02-26T13:40:36.422Z,19.20
2023-02-26T13:43:12.708Z,25.53
2023-02-26T13:45:50.189Z,15.58
2023-02-26T13:48:28.085Z,19.48
2023-02-26T13:51:04.454Z,20.95
2023-02-26T13:53:50.024Z,26.77
2023-02-26T13:56:23.729Z,27.13
2023-02-26T13:58:56.622Z,29.87
2023-02-26T14:01:33.577Z,22.02
2023-02-26T14:04:25.925Z,26.37
2023-02-26T14:06:58.809Z,22.40
2023-02-26T14:09:37.234Z,17.95
2023-02-26T14:12:24.649Z,21.05
2023-02-26T14:15:15.663Z,17.30
2023-02-26T14:17:51.381Z,25.15
2023-02-26T14:20:24.292Z,16.73
2023-02-26T14:23:01.374Z,22.05
2023-02-26T14:25:35.580Z,17.65
2023-02-26T14:28:25.204Z,19.62
2023-02-26T14:31:06.706Z,16.55
2023-02-26T14:33:42.240Z,16.17
2023-02-26T14:36:17.951Z,19.70
2023-02-26T14:38:50.616Z,15.88
2023-02-26T14:41:29.701Z,21.12
2023-02-26T14:44:03.004Z,14.60
2023-02-26T14:46:35.749Z,21.80
2023-02-26T14:49:09.809Z,17.27
2023-02-26T14:51:56.640Z,21.68
2023-02-26T14:54:44.711Z,20.85
2023-02-26T14:57:22.004Z,18.65
2023-02-26T15:00:10.015Z,15.93
2023-02-26T15:02:49.140Z,27.32
2023-02-26T15:05:37.074Z,15.72
2023-02-26T15:08:23.167Z,17.65
2023-02-26T15:11:01.845Z,21.17
2023-02-26T15:13:45.834Z,18.57
2023-02-26T15:16:24.547Z,21.02
2023-02-26T15:19:09.389Z,15.93
2023-02-26T15:21:46.399Z,28.67
2023-02-26T15:24:18.968Z,21.27
2023-02-26T15:26:51.953Z,17.32
2023-02-26T15:29:27.154Z,21.70
2023-02-26T15:32:01.754Z,18.87
2023-02-26T15:34:34.407Z,22.93
2023-02-26T15:37:06.357Z,22.25
2023-02-26T15:39:38.116Z,20.15
2023-02-26T15:42:11.299Z,19.17
2023-02-26T15:44:56.458Z,15.32
2023-02-26T15:47:29.230Z,20.55
2023-02-26T15:52:32.867Z,17.12
2023-02-26T15:55:06.273Z,20.32
2023-02-26T15:57:38.793Z,15.08
2023-02-26T16:00:17.580Z,18.67
2023-02-26T16:02:50.929Z,19.57
2023-02-26T16:05:23.118Z,17.87
2023-02-26T16:07:55.496Z,19.25
2023-02-26T16:10:33.805Z,19.25
2023-02-26T16:13:05.970Z,22.60
2023-02-26T16:15:39.569Z,16.60
2023-02-26T16:18:13.469Z,14.13
2023-02-26T16:20:46.768Z,14.30
2023-02-26T16:23:19.860Z,18.02
2023-02-26T16:25:52.888Z,15.25
2023-02-26T16:28:26.373Z,23.35
2023-02-26T16:31:02.731Z,16.07
2023-02-26T16:33:35.663Z,18.95
2023-02-26T16:36:14.713Z,17.07
2023-02-26T16:38:47.900Z,24.63
2023-02-26T16:41:23.938Z,19.05
2023-02-26T16:43:57.836Z,16.97
2023-02-26T16:46:33.733Z,22.67
2023-02-26T16:49:07.277Z,16.17
2023-02-26T16:51:41.512Z,22.55
2023-02-26T16:54:19.582Z,22.67
2023-02-26T16:56:53.803Z,22.07
2023-02-26T16:59:26.943Z,24.30
2023-02-26T17:02:00.951Z,23.05
2023-02-26T17:04:34.335Z,25.15
2023-02-26T17:07:16.333Z,22.10
2023-02-26T17:09:49.572Z,23.83
2023-02-26T17:12:22.978Z,25.55
2023-02-26T17:14:57.307Z,27.93
2023-02-26T17:17:29.926Z,22.65
2023-02-26T17:20:02.287Z,23.05
2023-02-26T17:22:34.038Z,22.60
2023-02-26T17:25:06.824Z,22.75
2023-02-26T17:27:38.991Z,24.72
2023-02-26T17:32:41.838Z,23.83
2023-02-26T17:35:15.480Z,24.07
2023-02-26T17:37:48.264Z,22.65
2023-02-26T17:40:21.735Z,20.72
2023-02-26T17:42:53.883Z,24.32
2023-02-26T17:47:55.232Z,26.33
2023-02-26T17:50:30.624Z,20.75
2023-02-26T17:53:02.364Z,23.67
2023-02-26T17:55:39.775Z,23.65
2023-02-26T17:58:16.371Z,21.95
2023-02-26T18:00:50.744Z,31.05
2023-02-26T18:03:22.894Z,28.73
2023-02-26T18:08:25.975Z,27.05
2023-02-26T18:10:58.925Z,27.20
2023-02-26T18:13:31.913Z,30.05
2023-02-26T18:16:04.488Z,24.72
2023-02-26T18:18:36.452Z,28.12
2023-02-26T18:21:09.435Z,27.77
2023-02-26T18:23:41.403Z,28.05
2023-02-26T18:26:14.448Z,24.98
2023-02-26T18:28:46.343Z,24.10
2023-02-26T18:31:20.180Z,27.58
2023-02-26T18:33:51.901Z,35.52
2023-02-26T18:36:30.217Z,31.95
2023-02-26T18:39:02.788Z,30.62
2023-02-26T18:41:36.330Z,29.80
2023-02-26T18:44:08.551Z,24.55
2023-02-26T18:46:42.356Z,26.00
2023-02-26T18:49:20.464Z,25.97
2023-02-26T18:51:52.422Z,21.93
2023-02-26T18:54:24.827Z,19.40
2023-02-26T18:56:56.964Z,16.70
2023-02-26T19:01:59.246Z,19.32
2023-02-26T19:04:32.231Z,15.25
2023-02-26T19:07:04.002Z,16.30
2023-02-26T19:09:36.560Z,16.35
2023-02-26T19:12:11.013Z,13.55
2023-02-26T19:14:45.689Z,13.88
2023-02-26T19:17:17.768Z,11.57
2023-02-26T19:22:19.845Z,11.80
2023-02-26T19:24:51.602Z,13.30
2023-02-26T19:27:24.184Z,13.15
2023-02-26T19:29:56.753Z,13.48
2023-02-26T19:32:28.842Z,14.80
2023-02-26T19:35:01.088Z,11.83
2023-02-26T19:37:33.456Z,13.90
2023-02-26T19:40:09.932Z,14.35
2023-02-26T19:42:42.097Z,15.58
2023-02-26T19:45:15.989Z,17.45
2023-02-26T19:47:47.315Z,14.38
2023-02-26T19:50:19.821Z,15.30
2023-02-26T19:52:51.573Z,14.75
2023-02-26T19:55:24.155Z,17.80
2023-02-26T19:57:56.346Z,17.12
2023-02-26T20:02:58.147Z,17.03
2023-02-26T20:05:30.159Z,21.00
2023-02-26T20:08:02.530Z,18.30
2023-02-26T20:10:35.110Z,18.17
2023-02-26T20:15:37.385Z,16.57
2023-02-26T20:18:09.342Z,15.80
2023-02-26T20:20:41.916Z,16.27
2023-02-26T20:23:14.289Z,15.53
2023-02-26T20:25:50.550Z,18.50
2023-02-26T20:28:22.311Z,19.20
2023-02-26T20:30:54.088Z,18.55
2023-02-26T20:33:25.287Z,18.60
2023-02-26T20:35:56.963Z,18.55
2023-02-26T20:38:29.943Z,19.95
2023-02-26T20:41:01.722Z,22.43
2023-02-26T20:43:33.662Z,21.33
2023-02-26T20:46:05.906Z,22.37
2023-02-26T20:48:41.882Z,19.87
2023-02-26T20:51:15.307Z,18.67
2023-02-26T20:53:47.047Z,17.62
2023-02-26T20:56:19.316Z,20.95
2023-02-26T21:01:22.511Z,20.50
2023-02-26T21:03:54.913Z,18.17
2023-02-26T21:06:27.252Z,19.53
2023-02-26T21:09:00.644Z,17.23
2023-02-26T21:11:36.547Z,17.67
2023-02-26T21:14:09.688Z,20.23
2023-02-26T21:16:41.894Z,20.93
2023-02-26T21:19:13.812Z,20.68
2023-02-26T21:21:46.188Z,22.62
2023-02-26T21:24:17.732Z,19.85
2023-02-26T21:26:49.286Z,17.60
2023-02-26T21:29:21.655Z,17.80
2023-02-26T21:31:53.961Z,19.12
2023-02-26T21:34:34.090Z,13.17
2023-02-26T21:37:07.990Z,14.63
2023-02-26T21:39:40.153Z,14.00
2023-02-26T21:42:13.132Z,13.70
2023-02-26T21:44:45.098Z,14.57
2023-02-26T21:47:17.258Z,14.00
2023-02-26T21:49:48.811Z,13.10
2023-02-26T21:52:21.387Z,12.55
2023-02-26T21:54:53.561Z,14.23
2023-02-26T21:57:26.534Z,12.00
2023-02-26T21:59:58.302Z,15.03
2023-02-26T22:02:31.354Z,11.95
2023-02-26T22:05:04.061Z,11.03
2023-02-26T22:07:37.243Z,11.80
2023-02-26T22:10:12.308Z,10.13
2023-02-26T22:12:44.416Z,10.47
2023-02-26T22:15:17.223Z,10.00
2023-02-26T22:17:48.978Z,10.87
2023-02-26T22:20:20.769Z,9.50
2023-02-26T22:22:52.900Z,11.10
2023-02-26T22:25:24.660Z,9.75
2023-02-26T22:27:57.440Z,10.68
2023-02-26T22:30:29.425Z,8.83
2023-02-26T22:33:00.924Z,10.28
2023-02-26T22:35:33.326Z,9.58
2023-02-26T22:38:05.490Z,9.10
2023-02-26T22:40:38.277Z,8.93
2023-02-26T22:43:10.492Z,9.75
2023-02-26T22:45:42.654Z,8.48
2023-02-26T22:50:45.710Z,8.95
2023-02-26T22:53:17.258Z,8.30
2023-02-26T22:55:49.628Z,8.73
2023-02-26T23:00:52.964Z,11.15
2023-02-26T23:03:24.493Z,7.50
2023-02-26T23:05:56.863Z,9.93
2023-02-26T23:08:29.844Z,8.35
2023-02-26T23:11:02.431Z,8.33
2023-02-26T23:13:35.830Z,10.13
2023-02-26T23:16:09.468Z,9.50
2023-02-26T23:18:41.172Z,10.00
2023-02-26T23:21:13.338Z,7.85
2023-02-26T23:23:45.239Z,9.95
2023-02-26T23:26:17.467Z,9.13
2023-02-26T23:28:49.834Z,9.35
2023-02-26T23:33:51.651Z,10.05
2023-02-26T23:36:23.675Z,10.55
2023-02-26T23:38:55.844Z,11.03
2023-02-26T23:43:59.124Z,9.70
2023-02-26T23:49:01.226Z,11.17
2023-02-26T23:51:32.783Z,9.37
2023-02-26T23:54:04.318Z,10.15
2023-02-26T23:56:35.869Z,9.98
2023-02-26T23:59:07.420Z,10.07
